Time,TemperatureF,DewpointF,PressureIn,WindDirection,WindDirectionDegrees,WindSpeedMPH,WindSpeedGustMPH,Humidity,HourlyPrecipIn,Conditions,Clouds,dailyrainin,SoftwareType,DateUTC
2013-12-23 00:00:00,16.2,10.8,30.29,NNW,333,2.0,4.0,79,0.00,,,0.06,Wunderground v.1.15,2013-12-23 06:00:00,
2013-12-23 00:05:00,16.1,10.7,30.29,NW,319,3.0,4.0,79,0.00,,,0.00,Wunderground v.1.15,2013-12-23 06:05:00,
2013-12-23 00:15:00,16.0,10.6,30.29,NNW,327,1.0,2.0,79,0.00,,,0.00,Wunderground v.1.15,2013-12-23 06:15:00,
2013-12-23 00:20:00,16.0,10.6,30.30,WNW,291,1.0,1.0,79,0.00,,,0.00,Wunderground v.1.15,2013-12-23 06:20:00,
2013-12-23 00:30:00,15.7,10.3,30.30,NNW,328,2.0,2.0,79,0.00,,,0.00,Wunderground v.1.15,2013-12-23 06:30:00,
2013-12-23 00:35:00,15.5,10.1,30.30,NNW,328,1.0,2.0,79,0.00,,,0.00,Wunderground v.1.15,2013-12-23 06:35:00,
2013-12-23 00:45:00,15.1,10.0,30.31,West,271,1.0,1.0,80,0.00,,,0.00,Wunderground v.1.15,2013-12-23 06:45:00,
2013-12-23 00:50:00,14.9,9.8,30.31,West,270,1.0,3.0,80,0.00,,,0.00,Wunderground v.1.15,2013-12-23 06:50:00,
2013-12-23 00:55:00,14.8,9.7,30.31,West,275,1.0,3.0,80,0.00,,,0.00,Wunderground v.1.15,2013-12-23 06:55:00,
2013-12-23 01:00:00,14.7,9.6,30.31,West,265,1.0,1.0,80,0.00,,,0.00,Wunderground v.1.15,2013-12-23 07:00:00,
2013-12-23 01:05:00,14.6,9.6,30.31,West,268,1.0,3.0,80,0.00,,,0.00,Wunderground v.1.15,2013-12-23 07:05:00,
2013-12-23 01:15:00,14.5,9.5,30.32,West,269,0.0,3.0,80,0.00,,,0.00,Wunderground v.1.15,2013-12-23 07:15:00,
2013-12-23 01:20:00,14.5,9.5,30.31,West,269,1.0,1.0,80,0.00,,,0.00,Wunderground v.1.15,2013-12-23 07:20:00,
2013-12-23 01:25:00,14.5,9.5,30.32,WNW,302,1.0,1.0,80,0.00,,,0.00,Wunderground v.1.15,2013-12-23 07:25:00,
2013-12-23 01:35:00,14.4,9.4,30.32,West,260,1.0,1.0,80,0.00,,,0.00,Wunderground v.1.15,2013-12-23 07:35:00,
2013-12-23 01:40:00,14.3,9.3,30.33,WNW,298,2.0,4.0,80,0.00,,,0.00,Wunderground v.1.15,2013-12-23 07:40:00,
2013-12-23 01:45:00,14.3,9.3,30.33,NW,321,2.0,4.0,80,0.00,,,0.00,Wunderground v.1.15,2013-12-23 07:45:00,
2013-12-23 01:55:00,14.1,9.1,30.33,NNW,337,2.0,4.0,80,0.00,,,0.00,Wunderground v.1.15,2013-12-23 07:55:00,
2013-12-23 02:00:00,14.0,9.0,30.34,NNW,334,3.0,4.0,80,0.00,,,0.00,Wunderground v.1.15,2013-12-23 08:00:00,
2013-12-23 02:05:00,13.8,8.8,30.34,NW,317,3.0,4.0,80,0.00,,,0.00,Wunderground v.1.15,2013-12-23 08:05:00,
2013-12-23 02:15:00,13.6,8.6,30.35,WNW,301,3.0,4.0,80,0.00,,,0.00,Wunderground v.1.15,2013-12-23 08:15:00,
2013-12-23 02:20:00,13.4,8.7,30.35,West,261,4.0,4.0,81,0.00,,,0.00,Wunderground v.1.15,2013-12-23 08:20:00,
2013-12-23 02:25:00,13.1,8.4,30.35,NNW,340,4.0,8.0,81,0.00,,,0.00,Wunderground v.1.15,2013-12-23 08:25:00,
2013-12-23 02:30:00,12.8,8.1,30.35,NNW,334,4.0,4.0,81,0.00,,,0.00,Wunderground v.1.15,2013-12-23 08:30:00,
2013-12-23 02:40:00,12.4,7.7,30.36,NW,318,4.0,4.0,81,0.00,,,0.00,Wunderground v.1.15,2013-12-23 08:40:00,
2013-12-23 02:45:00,12.2,7.5,30.36,NW,306,3.0,4.0,81,0.00,,,0.00,Wunderground v.1.15,2013-12-23 08:45:00,
2013-12-23 02:50:00,12.0,7.3,30.36,WNW,291,4.0,4.0,81,0.00,,,0.00,Wunderground v.1.15,2013-12-23 08:50:00,
2013-12-23 02:55:00,11.9,7.2,30.36,WNW,296,3.0,4.0,81,0.00,,,0.00,Wunderground v.1.15,2013-12-23 08:55:00,
2013-12-23 03:00:00,11.7,7.3,30.36,WNW,299,3.0,3.0,82,0.00,,,0.00,Wunderground v.1.15,2013-12-23 09:00:00,
2013-12-23 03:05:00,11.6,7.2,30.37,NW,311,3.0,3.0,82,0.00,,,0.00,Wunderground v.1.15,2013-12-23 09:05:00,
2013-12-23 03:15:00,11.1,6.7,30.37,West,263,2.0,3.0,82,0.00,,,0.00,Wunderground v.1.15,2013-12-23 09:15:00,
2013-12-23 03:25:00,10.8,6.4,30.37,WNW,282,1.0,5.0,82,0.00,,,0.00,Wunderground v.1.15,2013-12-23 09:25:00,
2013-12-23 03:30:00,10.6,6.2,30.37,WNW,302,2.0,2.0,82,0.00,,,0.00,Wunderground v.1.15,2013-12-23 09:30:00,
2013-12-23 03:40:00,9.9,5.8,30.38,NW,322,3.0,3.0,83,0.00,,,0.00,Wunderground v.1.15,2013-12-23 09:40:00,
2013-12-23 03:45:00,9.9,5.8,30.39,NNW,341,2.0,3.0,83,0.00,,,0.00,Wunderground v.1.15,2013-12-23 09:45:00,
2013-12-23 03:50:00,9.5,5.4,30.39,NNW,334,2.0,3.0,83,0.00,,,0.00,Wunderground v.1.15,2013-12-23 09:50:00,
2013-12-23 03:55:00,9.2,5.1,30.39,NW,311,3.0,3.0,83,0.00,,,0.00,Wunderground v.1.15,2013-12-23 09:55:00,
2013-12-23 04:00:00,8.9,4.8,30.39,West,276,2.0,2.0,83,0.00,,,0.00,Wunderground v.1.15,2013-12-23 10:00:00,
2013-12-23 04:05:00,8.6,4.5,30.39,WNW,286,2.0,2.0,83,0.00,,,0.00,Wunderground v.1.15,2013-12-23 10:05:00,
2013-12-23 04:15:00,8.0,4.2,30.40,WNW,288,2.0,3.0,84,0.00,,,0.00,Wunderground v.1.15,2013-12-23 10:15:00,
2013-12-23 04:25:00,7.2,3.4,30.40,West,274,1.0,2.0,84,0.00,,,0.00,Wunderground v.1.15,2013-12-23 10:25:00,
2013-12-23 04:30:00,6.8,3.0,30.40,WSW,246,0.0,0.0,84,0.00,,,0.00,Wunderground v.1.15,2013-12-23 10:30:00,
2013-12-23 04:35:00,6.4,2.6,30.40,WSW,248,0.0,0.0,84,0.00,,,0.00,Wunderground v.1.15,2013-12-23 10:35:00,
2013-12-23 04:40:00,5.8,2.0,30.40,WSW,248,0.0,0.0,84,0.00,,,0.00,Wunderground v.1.15,2013-12-23 10:40:00,
2013-12-23 04:50:00,4.5,0.7,30.40,West,261,0.0,0.0,84,0.00,,,0.00,Wunderground v.1.15,2013-12-23 10:50:00,
2013-12-23 04:55:00,4.1,0.3,30.41,West,266,0.0,1.0,84,0.00,,,0.00,Wunderground v.1.15,2013-12-23 10:55:00,
2013-12-23 05:00:00,3.6,-0.2,30.41,WSW,250,0.0,0.0,84,0.00,,,0.00,Wunderground v.1.15,2013-12-23 11:00:00,
2013-12-23 05:05:00,3.3,-0.4,30.41,West,259,1.0,1.0,84,0.00,,,0.00,Wunderground v.1.15,2013-12-23 11:05:00,
2013-12-23 05:15:00,2.8,-0.9,30.41,West,260,0.0,0.0,84,0.00,,,0.00,Wunderground v.1.15,2013-12-23 11:15:00,
2013-12-23 05:20:00,2.8,-0.9,30.42,West,260,0.0,0.0,84,0.00,,,0.00,Wunderground v.1.15,2013-12-23 11:20:00,
2013-12-23 05:25:00,2.5,-1.2,30.42,WNW,286,0.0,0.0,84,0.00,,,0.00,Wunderground v.1.15,2013-12-23 11:25:00,
2013-12-23 05:30:00,2.3,-1.4,30.42,West,269,0.0,0.0,84,0.00,,,0.00,Wunderground v.1.15,2013-12-23 11:30:00,
2013-12-23 05:35:00,2.0,-1.7,30.43,West,268,1.0,2.0,84,0.00,,,0.00,Wunderground v.1.15,2013-12-23 11:35:00,
2013-12-23 05:40:00,1.8,-1.9,30.43,NW,315,1.0,3.0,84,0.00,,,0.00,Wunderground v.1.15,2013-12-23 11:40:00,
2013-12-23 05:45:00,1.7,-1.8,30.43,WNW,298,1.0,3.0,85,0.00,,,0.00,Wunderground v.1.15,2013-12-23 11:45:00,
2013-12-23 05:55:00,1.4,-2.3,30.43,WNW,303,1.0,3.0,84,0.00,,,0.00,Wunderground v.1.15,2013-12-23 11:55:00,
2013-12-23 06:00:00,1.2,-2.5,30.44,NW,321,2.0,2.0,84,0.00,,,0.00,Wunderground v.1.15,2013-12-23 12:00:00,
2013-12-23 06:05:00,1.1,-2.6,30.44,NW,325,2.0,2.0,84,0.00,,,0.00,Wunderground v.1.15,2013-12-23 12:05:00,
2013-12-23 06:15:00,0.8,-2.9,30.44,NW,305,2.0,2.0,84,0.00,,,0.00,Wunderground v.1.15,2013-12-23 12:15:00,
2013-12-23 06:20:00,0.5,-3.2,30.44,NW,313,1.0,1.0,84,0.00,,,0.00,Wunderground v.1.15,2013-12-23 12:20:00,
2013-12-23 06:30:00,0.2,-3.5,30.45,NW,306,0.0,0.0,84,0.00,,,0.00,Wunderground v.1.15,2013-12-23 12:30:00,
2013-12-23 06:35:00,0.1,-3.6,30.45,NW,306,0.0,0.0,84,0.00,,,0.00,Wunderground v.1.15,2013-12-23 12:35:00,
2013-12-23 06:40:00,0.0,-3.7,30.45,WNW,288,0.0,0.0,84,0.00,,,0.00,Wunderground v.1.15,2013-12-23 12:40:00,
2013-12-23 06:45:00,-0.1,-3.8,30.46,WNW,289,0.0,0.0,84,0.00,,,0.00,Wunderground v.1.15,2013-12-23 12:45:00,
2013-12-23 06:55:00,-0.5,-4.2,30.46,WNW,288,0.0,0.0,84,0.00,,,0.00,Wunderground v.1.15,2013-12-23 12:55:00,
2013-12-23 07:00:00,-0.7,-4.4,30.47,WNW,288,0.0,0.0,84,0.00,,,0.00,Wunderground v.1.15,2013-12-23 13:00:00,
2013-12-23 07:05:00,-0.9,-4.6,30.47,WNW,288,0.0,0.0,84,0.00,,,0.00,Wunderground v.1.15,2013-12-23 13:05:00,
2013-12-23 07:15:00,-1.3,-5.0,30.47,West,275,1.0,1.0,84,0.00,,,0.00,Wunderground v.1.15,2013-12-23 13:15:00,
2013-12-23 07:20:00,-1.4,-5.1,30.47,NW,321,1.0,2.0,84,0.00,,,0.00,Wunderground v.1.15,2013-12-23 13:20:00,
2013-12-23 07:25:00,-1.6,-5.3,30.47,NW,321,0.0,2.0,84,0.00,,,0.00,Wunderground v.1.15,2013-12-23 13:25:00,
2013-12-23 07:35:00,-1.8,-5.2,30.48,WNW,284,1.0,1.0,85,0.00,,,0.00,Wunderground v.1.15,2013-12-23 13:35:00,
2013-12-23 07:40:00,-1.8,-5.2,30.48,WNW,287,0.0,0.0,85,0.00,,,0.00,Wunderground v.1.15,2013-12-23 13:40:00,
2013-12-23 07:45:00,-1.8,-5.2,30.48,West,269,0.0,0.0,85,0.00,,,0.00,Wunderground v.1.15,2013-12-23 13:45:00,
2013-12-23 07:55:00,-1.4,-4.8,30.49,West,272,0.0,2.0,85,0.00,,,0.00,Wunderground v.1.15,2013-12-23 13:55:00,
2013-12-23 08:00:00,-1.2,-4.6,30.49,West,269,0.0,2.0,85,0.00,,,0.00,Wunderground v.1.15,2013-12-23 14:00:00,
2013-12-23 08:05:00,-1.0,-4.4,30.49,West,267,0.0,2.0,85,0.00,,,0.00,Wunderground v.1.15,2013-12-23 14:05:00,
2013-12-23 08:15:00,-0.7,-4.1,30.50,West,259,0.0,0.0,85,0.00,,,0.00,Wunderground v.1.15,2013-12-23 14:15:00,
2013-12-23 08:20:00,-0.6,-4.0,30.50,West,259,0.0,0.0,85,0.00,,,0.00,Wunderground v.1.15,2013-12-23 14:20:00,
2013-12-23 08:25:00,-0.6,-4.0,30.50,West,275,0.0,2.0,85,0.00,,,0.00,Wunderground v.1.15,2013-12-23 14:25:00,
2013-12-23 08:35:00,-0.8,-4.2,30.50,West,261,1.0,1.0,85,0.00,,,0.00,Wunderground v.1.15,2013-12-23 14:35:00,
2013-12-23 08:40:00,-0.8,-4.2,30.50,West,272,1.0,1.0,85,0.00,,,0.00,Wunderground v.1.15,2013-12-23 14:40:00,
2013-12-23 08:45:00,-0.7,-4.1,30.51,West,273,2.0,2.0,85,0.00,,,0.00,Wunderground v.1.15,2013-12-23 14:45:00,
2013-12-23 08:55:00,-0.6,-4.3,30.51,WNW,287,2.0,4.0,84,0.00,,,0.00,Wunderground v.1.15,2013-12-23 14:55:00,
2013-12-23 09:00:00,-0.4,-3.8,30.51,NW,304,2.0,3.0,85,0.00,,,0.00,Wunderground v.1.15,2013-12-23 15:00:00,
2013-12-23 09:05:00,-0.3,-4.0,30.51,WNW,303,2.0,3.0,84,0.00,,,0.00,Wunderground v.1.15,2013-12-23 15:05:00,
2013-12-23 09:15:00,-0.3,-4.0,30.52,WSW,251,3.0,3.0,84,0.00,,,0.00,Wunderground v.1.15,2013-12-23 15:15:00,
2013-12-23 09:20:00,-0.3,-4.0,30.52,NW,322,3.0,4.0,84,0.00,,,0.00,Wunderground v.1.15,2013-12-23 15:20:00,
2013-12-23 09:25:00,-0.2,-3.9,30.53,WNW,292,4.0,4.0,84,0.00,,,0.00,Wunderground v.1.15,2013-12-23 15:25:00,
2013-12-23 09:35:00,0.0,-3.7,30.53,West,267,2.0,3.0,84,0.00,,,0.00,Wunderground v.1.15,2013-12-23 15:35:00,
2013-12-23 09:40:00,0.0,-3.7,30.53,West,275,2.0,3.0,84,0.00,,,0.00,Wunderground v.1.15,2013-12-23 15:40:00,
2013-12-23 09:45:00,0.1,-3.6,30.54,WNW,289,3.0,3.0,84,0.00,,,0.00,Wunderground v.1.15,2013-12-23 15:45:00,
2013-12-23 09:50:00,0.3,-3.4,30.54,NW,314,4.0,4.0,84,0.00,,,0.00,Wunderground v.1.15,2013-12-23 15:50:00,
2013-12-23 10:00:00,0.7,-3.0,30.55,West,264,3.0,3.0,84,0.00,,,0.00,Wunderground v.1.15,2013-12-23 16:00:00,
2013-12-23 10:05:00,0.8,-2.9,30.54,NW,309,3.0,4.0,84,0.00,,,0.00,Wunderground v.1.15,2013-12-23 16:05:00,
2013-12-23 10:15:00,1.0,-2.7,30.54,WNW,299,3.0,4.0,84,0.00,,,0.00,Wunderground v.1.15,2013-12-23 16:15:00,
2013-12-23 10:20:00,1.3,-2.4,30.54,NNW,329,2.0,7.0,84,0.00,,,0.00,Wunderground v.1.15,2013-12-23 16:20:00,
2013-12-23 10:25:00,1.6,-2.1,30.54,West,275,3.0,7.0,84,0.00,,,0.00,Wunderground v.1.15,2013-12-23 16:25:00,
2013-12-23 10:30:00,2.0,-1.7,30.55,West,271,3.0,5.0,84,0.00,,,0.00,Wunderground v.1.15,2013-12-23 16:30:00,
2013-12-23 10:35:00,2.1,-1.9,30.55,NNW,328,4.0,7.0,83,0.00,,,0.00,Wunderground v.1.15,2013-12-23 16:35:00,
2013-12-23 10:40:00,2.2,-1.8,30.54,NNW,329,4.0,4.0,83,0.00,,,0.00,Wunderground v.1.15,2013-12-23 16:40:00,
2013-12-23 10:50:00,2.7,-1.3,30.54,West,274,4.0,4.0,83,0.00,,,0.00,Wunderground v.1.15,2013-12-23 16:50:00,
2013-12-23 10:55:00,2.9,-1.1,30.54,NNW,333,3.0,4.0,83,0.00,,,0.00,Wunderground v.1.15,2013-12-23 16:55:00,
2013-12-23 11:00:00,3.3,-0.7,30.54,West,278,2.0,2.0,83,0.00,,,0.00,Wunderground v.1.15,2013-12-23 17:00:00,
2013-12-23 11:05:00,3.6,-0.4,30.55,NW,325,2.0,2.0,83,0.00,,,0.00,Wunderground v.1.15,2013-12-23 17:05:00,
2013-12-23 11:15:00,3.8,-0.2,30.54,WNW,298,2.0,5.0,83,0.00,,,0.00,Wunderground v.1.15,2013-12-23 17:15:00,
2013-12-23 11:20:00,3.8,-0.2,30.54,NW,310,3.0,3.0,83,0.00,,,0.00,Wunderground v.1.15,2013-12-23 17:20:00,
2013-12-23 11:30:00,3.8,-0.5,30.54,NW,308,3.0,4.0,82,0.00,,,0.00,Wunderground v.1.15,2013-12-23 17:30:00,
2013-12-23 11:40:00,3.6,-0.4,30.54,West,268,3.0,3.0,83,0.00,,,0.00,Wunderground v.1.15,2013-12-23 17:40:00,
2013-12-23 11:45:00,3.8,-0.2,30.54,WNW,299,2.0,4.0,83,0.00,,,0.00,Wunderground v.1.15,2013-12-23 17:45:00,
2013-12-23 11:50:00,4.0,0.0,30.53,WNW,286,3.0,3.0,83,0.00,,,0.00,Wunderground v.1.15,2013-12-23 17:50:00,
2013-12-23 11:55:00,4.0,0.0,30.53,West,276,3.0,5.0,83,0.00,,,0.00,Wunderground v.1.15,2013-12-23 17:55:00,
2013-12-23 12:05:00,3.7,-0.3,30.53,WNW,300,4.0,4.0,83,0.00,,,0.00,Wunderground v.1.15,2013-12-23 18:05:00,
2013-12-23 12:15:00,3.8,-0.2,30.53,West,275,3.0,4.0,83,0.00,,,0.00,Wunderground v.1.15,2013-12-23 18:15:00,
2013-12-23 12:20:00,3.8,-0.2,30.54,WNW,303,2.0,4.0,83,0.00,,,0.00,Wunderground v.1.15,2013-12-23 18:20:00,
2013-12-23 12:25:00,3.8,-0.2,30.54,WNW,292,2.0,4.0,83,0.00,,,0.00,Wunderground v.1.15,2013-12-23 18:25:00,
2013-12-23 12:30:00,3.7,-0.3,30.54,SSW,213,2.0,8.0,83,0.00,,,0.00,Wunderground v.1.15,2013-12-23 18:30:00,
2013-12-23 12:35:00,3.2,-0.8,30.54,WSW,244,3.0,8.0,83,0.00,,,0.00,Wunderground v.1.15,2013-12-23 18:35:00,
2013-12-23 12:45:00,2.5,-1.5,30.55,WSW,248,3.0,4.0,83,0.00,,,0.00,Wunderground v.1.15,2013-12-23 18:45:00,
2013-12-23 12:50:00,2.1,-1.9,30.55,West,276,4.0,4.0,83,0.00,,,0.00,Wunderground v.1.15,2013-12-23 18:50:00,
2013-12-23 13:00:00,2.0,-1.7,30.54,West,275,3.0,5.0,84,0.00,,,0.00,Wunderground v.1.15,2013-12-23 19:00:00,
2013-12-23 13:05:00,2.2,-1.5,30.54,SW,219,2.0,5.0,84,0.00,,,0.00,Wunderground v.1.15,2013-12-23 19:05:00,
2013-12-23 13:15:00,2.8,-0.9,30.54,SW,218,2.0,9.0,84,0.00,,,0.00,Wunderground v.1.15,2013-12-23 19:15:00,
2013-12-23 13:20:00,2.8,-0.9,30.54,SW,232,2.0,4.0,84,0.00,,,0.00,Wunderground v.1.15,2013-12-23 19:20:00,
2013-12-23 13:25:00,2.8,-0.9,30.54,SSW,211,3.0,7.0,84,0.00,,,0.00,Wunderground v.1.15,2013-12-23 19:25:00,
2013-12-23 13:30:00,2.6,-1.4,30.54,WSW,238,3.0,3.0,83,0.00,,,0.00,Wunderground v.1.15,2013-12-23 19:30:00,
2013-12-23 13:40:00,2.3,-1.7,30.54,SSW,196,3.0,5.0,83,0.00,,,0.00,Wunderground v.1.15,2013-12-23 19:40:00,
2013-12-23 13:45:00,2.3,-1.7,30.54,WNW,294,3.0,5.0,83,0.00,,,0.00,Wunderground v.1.15,2013-12-23 19:45:00,
2013-12-23 13:50:00,2.1,-1.9,30.55,West,268,3.0,3.0,83,0.00,,,0.00,Wunderground v.1.15,2013-12-23 19:50:00,
2013-12-23 13:55:00,1.9,-2.1,30.55,West,267,3.0,4.0,83,0.00,,,0.00,Wunderground v.1.15,2013-12-23 19:55:00,
2013-12-23 14:05:00,1.7,-2.3,30.55,WSW,253,2.0,3.0,83,0.00,,,0.00,Wunderground v.1.15,2013-12-23 20:05:00,
2013-12-23 14:15:00,1.8,-2.2,30.56,WSW,253,2.0,5.0,83,0.00,,,0.00,Wunderground v.1.15,2013-12-23 20:15:00,
2013-12-23 14:20:00,1.9,-1.8,30.56,SSW,209,3.0,4.0,84,0.00,,,0.00,Wunderground v.1.15,2013-12-23 20:20:00,
2013-12-23 14:25:00,1.7,-2.3,30.56,WSW,254,2.0,4.0,83,0.00,,,0.00,Wunderground v.1.15,2013-12-23 20:25:00,
2013-12-23 14:30:00,1.8,-2.2,30.56,WSW,253,2.0,2.0,83,0.00,,,0.00,Wunderground v.1.15,2013-12-23 20:30:00,
2013-12-23 14:40:00,2.1,-1.6,30.55,NW,317,1.0,2.0,84,0.00,,,0.00,Wunderground v.1.15,2013-12-23 20:40:00,
2013-12-23 14:45:00,2.1,-1.9,30.56,West,266,2.0,7.0,83,0.00,,,0.00,Wunderground v.1.15,2013-12-23 20:45:00,
2013-12-23 14:50:00,2.0,-2.0,30.56,NW,307,4.0,4.0,83,0.00,,,0.00,Wunderground v.1.15,2013-12-23 20:50:00,
2013-12-23 14:55:00,1.9,-2.1,30.56,WNW,288,4.0,4.0,83,0.00,,,0.00,Wunderground v.1.15,2013-12-23 20:55:00,
2013-12-23 15:05:00,1.8,-2.2,30.56,West,281,3.0,4.0,83,0.00,,,0.00,Wunderground v.1.15,2013-12-23 21:05:00,
2013-12-23 15:15:00,1.5,-2.5,30.56,WSW,257,4.0,4.0,83,0.00,,,0.00,Wunderground v.1.15,2013-12-23 21:15:00,
2013-12-23 15:20:00,1.4,-2.6,30.56,West,275,3.0,5.0,83,0.00,,,0.00,Wunderground v.1.15,2013-12-23 21:20:00,
2013-12-23 15:25:00,1.2,-2.8,30.57,WNW,296,4.0,5.0,83,0.00,,,0.00,Wunderground v.1.15,2013-12-23 21:25:00,
2013-12-23 15:30:00,1.1,-2.9,30.57,WNW,290,3.0,3.0,83,0.00,,,0.00,Wunderground v.1.15,2013-12-23 21:30:00,
2013-12-23 15:40:00,0.9,-3.1,30.57,NNW,344,3.0,3.0,83,0.00,,,0.00,Wunderground v.1.15,2013-12-23 21:40:00,
2013-12-23 15:50:00,0.5,-3.4,30.58,NW,313,2.0,2.0,83,0.00,,,0.00,Wunderground v.1.15,2013-12-23 21:50:00,
2013-12-23 15:55:00,0.3,-3.6,30.59,WSW,256,2.0,2.0,83,0.00,,,0.00,Wunderground v.1.15,2013-12-23 21:55:00,
2013-12-23 16:00:00,0.1,-3.8,30.59,West,279,2.0,2.0,83,0.00,,,0.00,Wunderground v.1.15,2013-12-23 22:00:00,
2013-12-23 16:05:00,0.0,-3.9,30.59,West,275,1.0,2.0,83,0.00,,,0.00,Wunderground v.1.15,2013-12-23 22:05:00,
2013-12-23 16:15:00,-0.4,-4.3,30.59,West,262,1.0,3.0,83,0.00,,,0.00,Wunderground v.1.15,2013-12-23 22:15:00,
2013-12-23 16:20:00,-0.6,-4.5,30.59,West,277,2.0,2.0,83,0.00,,,0.00,Wunderground v.1.15,2013-12-23 22:20:00,
2013-12-23 16:25:00,-0.7,-4.6,30.59,NNW,329,2.0,2.0,83,0.00,,,0.00,Wunderground v.1.15,2013-12-23 22:25:00,
2013-12-23 16:35:00,-1.0,-4.9,30.60,NW,312,2.0,3.0,83,0.00,,,0.00,Wunderground v.1.15,2013-12-23 22:35:00,
2013-12-23 16:40:00,-1.1,-5.0,30.60,NW,315,3.0,3.0,83,0.00,,,0.00,Wunderground v.1.15,2013-12-23 22:40:00,
2013-12-23 16:45:00,-1.3,-5.2,30.60,NW,311,3.0,3.0,83,0.00,,,0.00,Wunderground v.1.15,2013-12-23 22:45:00,
2013-12-23 16:50:00,-1.4,-5.3,30.60,NNW,346,3.0,6.0,83,0.00,,,0.00,Wunderground v.1.15,2013-12-23 22:50:00,
2013-12-23 16:55:00,-1.6,-5.5,30.61,NW,326,4.0,6.0,83,0.00,,,0.00,Wunderground v.1.15,2013-12-23 22:55:00,
2013-12-23 17:05:00,-1.9,-5.8,30.60,NW,304,3.0,7.0,83,0.00,,,0.00,Wunderground v.1.15,2013-12-23 23:05:00,
2013-12-23 17:15:00,-2.2,-6.1,30.61,NW,318,2.0,6.0,83,0.00,,,0.00,Wunderground v.1.15,2013-12-23 23:15:00,
2013-12-23 17:20:00,-2.3,-6.2,30.61,NW,304,3.0,3.0,83,0.00,,,0.00,Wunderground v.1.15,2013-12-23 23:20:00,
2013-12-23 17:25:00,-2.4,-6.3,30.61,NW,309,1.0,3.0,83,0.00,,,0.00,Wunderground v.1.15,2013-12-23 23:25:00,
2013-12-23 17:35:00,-2.6,-6.5,30.62,WSW,251,0.0,1.0,83,0.00,,,0.00,Wunderground v.1.15,2013-12-23 23:35:00,
2013-12-23 17:40:00,-2.8,-6.7,30.62,WSW,251,0.0,0.0,83,0.00,,,0.00,Wunderground v.1.15,2013-12-23 23:40:00,
2013-12-23 17:45:00,-3.0,-6.9,30.62,WSW,250,0.0,0.0,83,0.00,,,0.00,Wunderground v.1.15,2013-12-23 23:45:00,
2013-12-23 17:50:00,-3.2,-7.1,30.63,WNW,299,1.0,1.0,83,0.00,,,0.00,Wunderground v.1.15,2013-12-23 23:50:00,
2013-12-23 18:00:00,-3.5,-7.4,30.63,NW,304,1.0,2.0,83,0.00,,,0.00,Wunderground v.1.15,2013-12-24 00:00:00,
2013-12-23 18:05:00,-3.6,-7.2,30.63,WNW,289,2.0,2.0,84,0.00,,,0.00,Wunderground v.1.15,2013-12-24 00:05:00,
2013-12-23 18:15:00,-3.9,-7.8,30.64,NW,317,1.0,1.0,83,0.00,,,0.00,Wunderground v.1.15,2013-12-24 00:15:00,
2013-12-23 18:20:00,-4.0,-7.9,30.64,WNW,299,1.0,1.0,83,0.00,,,0.00,Wunderground v.1.15,2013-12-24 00:20:00,
2013-12-23 18:25:00,-4.1,-8.0,30.64,WNW,284,1.0,1.0,83,0.00,,,0.00,Wunderground v.1.15,2013-12-24 00:25:00,
2013-12-23 18:35:00,-4.3,-8.2,30.64,NW,323,1.0,1.0,83,0.00,,,0.00,Wunderground v.1.15,2013-12-24 00:35:00,
2013-12-23 18:40:00,-4.4,-8.0,30.64,WSW,257,2.0,2.0,84,0.00,,,0.00,Wunderground v.1.15,2013-12-24 00:40:00,
2013-12-23 18:45:00,-4.4,-8.0,30.64,WNW,298,1.0,2.0,84,0.00,,,0.00,Wunderground v.1.15,2013-12-24 00:45:00,
2013-12-23 18:50:00,-4.4,-8.0,30.64,NW,324,1.0,1.0,84,0.00,,,0.00,Wunderground v.1.15,2013-12-24 00:50:00,
2013-12-23 19:00:00,-4.5,-8.1,30.65,NW,309,1.0,1.0,84,0.00,,,0.00,Wunderground v.1.15,2013-12-24 01:00:00,
2013-12-23 19:05:00,-4.5,-8.1,30.64,NW,309,0.0,1.0,84,0.00,,,0.00,Wunderground v.1.15,2013-12-24 01:05:00,
2013-12-23 19:15:00,-4.6,-8.2,30.65,NW,309,0.0,0.0,84,0.00,,,0.00,Wunderground v.1.15,2013-12-24 01:15:00,
2013-12-23 19:20:00,-4.7,-8.5,30.65,West,279,1.0,1.0,83,0.00,,,0.00,Wunderground v.1.15,2013-12-24 01:20:00,
2013-12-23 19:25:00,-4.8,-8.6,30.65,WNW,282,1.0,2.0,83,0.00,,,0.00,Wunderground v.1.15,2013-12-24 01:25:00,
2013-12-23 19:35:00,-4.9,-8.5,30.65,NNW,330,0.0,1.0,84,0.00,,,0.00,Wunderground v.1.15,2013-12-24 01:35:00,
2013-12-23 19:40:00,-5.0,-8.6,30.65,NNW,330,0.0,0.0,84,0.00,,,0.00,Wunderground v.1.15,2013-12-24 01:40:00,
2013-12-23 19:45:00,-5.0,-8.8,30.65,NNW,330,0.0,0.0,83,0.00,,,0.00,Wunderground v.1.15,2013-12-24 01:45:00,
2013-12-23 19:50:00,-5.1,-8.9,30.65,NNW,330,0.0,0.0,83,0.00,,,0.00,Wunderground v.1.15,2013-12-24 01:50:00,
2013-12-23 20:00:00,-5.3,-8.9,30.65,NNW,329,0.0,0.0,84,0.00,,,0.00,Wunderground v.1.15,2013-12-24 02:00:00,
2013-12-23 20:05:00,-5.5,-9.3,30.65,NNW,329,0.0,0.0,83,0.00,,,0.00,Wunderground v.1.15,2013-12-24 02:05:00,
2013-12-23 20:15:00,-5.7,-9.5,30.65,NNW,329,0.0,0.0,83,0.00,,,0.00,Wunderground v.1.15,2013-12-24 02:15:00,
2013-12-23 20:20:00,-5.9,-9.7,30.65,NNW,329,0.0,0.0,83,0.00,,,0.00,Wunderground v.1.15,2013-12-24 02:20:00,
2013-12-23 20:25:00,-6.3,-10.1,30.65,NNW,329,0.0,0.0,83,0.00,,,0.00,Wunderground v.1.15,2013-12-24 02:25:00,
2013-12-23 20:30:00,-6.7,-10.5,30.65,NNW,329,0.0,0.0,83,0.00,,,0.00,Wunderground v.1.15,2013-12-24 02:30:00,
2013-12-23 20:35:00,-7.2,-11.0,30.65,NNW,329,0.0,0.0,83,0.00,,,0.00,Wunderground v.1.15,2013-12-24 02:35:00,
2013-12-23 20:40:00,-7.7,-11.5,30.65,NNW,329,0.0,0.0,83,0.00,,,0.00,Wunderground v.1.15,2013-12-24 02:40:00,
2013-12-23 20:50:00,-8.5,-12.3,30.65,NNW,329,0.0,0.0,83,0.00,,,0.00,Wunderground v.1.15,2013-12-24 02:50:00,
2013-12-23 20:55:00,-8.9,-12.7,30.65,NNW,329,0.0,0.0,83,0.00,,,0.00,Wunderground v.1.15,2013-12-24 02:55:00,
2013-12-23 21:00:00,-8.9,-12.7,30.65,NNW,329,0.0,0.0,83,0.00,,,0.00,Wunderground v.1.15,2013-12-24 03:00:00,
2013-12-23 21:05:00,-9.1,-12.9,30.65,NNW,329,0.0,0.0,83,0.00,,,0.00,Wunderground v.1.15,2013-12-24 03:05:00,
2013-12-23 21:15:00,-9.7,-13.5,30.65,NNW,329,0.0,0.0,83,0.00,,,0.00,Wunderground v.1.15,2013-12-24 03:15:00,
2013-12-23 21:20:00,-9.8,-13.5,30.65,NNW,329,0.0,0.0,83,0.00,,,0.00,Wunderground v.1.15,2013-12-24 03:20:00,
2013-12-23 21:30:00,-9.8,-13.5,30.66,NNW,329,0.0,0.0,83,0.00,,,0.00,Wunderground v.1.15,2013-12-24 03:30:00,
2013-12-23 21:35:00,-9.8,-13.5,30.66,NNW,329,0.0,0.0,83,0.00,,,0.00,Wunderground v.1.15,2013-12-24 03:35:00,
2013-12-23 21:40:00,-9.9,-13.6,30.65,NNW,329,0.0,0.0,83,0.00,,,0.00,Wunderground v.1.15,2013-12-24 03:40:00,
2013-12-23 21:50:00,-10.3,-13.8,30.65,NNW,329,0.0,0.0,84,0.00,,,0.00,Wunderground v.1.15,2013-12-24 03:50:00,
2013-12-23 21:55:00,-10.5,-14.2,30.65,NNW,329,0.0,0.0,83,0.00,,,0.00,Wunderground v.1.15,2013-12-24 03:55:00,
2013-12-23 22:05:00,-10.7,-14.4,30.65,NNW,329,0.0,0.0,83,0.00,,,0.00,Wunderground v.1.15,2013-12-24 04:05:00,
2013-12-23 22:15:00,-11.1,-14.8,30.65,NNW,329,0.0,0.0,83,0.00,,,0.00,Wunderground v.1.15,2013-12-24 04:15:00,
2013-12-23 22:20:00,-11.1,-14.8,30.65,NNW,329,0.0,0.0,83,0.00,,,0.00,Wunderground v.1.15,2013-12-24 04:20:00,
2013-12-23 22:25:00,-11.1,-14.8,30.65,NNW,329,0.0,0.0,83,0.00,,,0.00,Wunderground v.1.15,2013-12-24 04:25:00,
2013-12-23 22:30:00,-11.4,-15.1,30.65,NNW,329,0.0,0.0,83,0.00,,,0.00,Wunderground v.1.15,2013-12-24 04:30:00,
2013-12-23 22:35:00,-11.6,-15.3,30.65,NNW,329,0.0,0.0,83,0.00,,,0.00,Wunderground v.1.15,2013-12-24 04:35:00,
2013-12-23 22:40:00,-11.6,-15.1,30.65,NNW,329,0.0,0.0,84,0.00,,,0.00,Wunderground v.1.15,2013-12-24 04:40:00,
2013-12-23 22:50:00,-11.4,-14.9,30.65,NNW,329,0.0,0.0,84,0.00,,,0.00,Wunderground v.1.15,2013-12-24 04:50:00,
2013-12-23 23:00:00,-11.5,-15.0,30.65,NNW,329,0.0,0.0,84,0.00,,,0.00,Wunderground v.1.15,2013-12-24 05:00:00,
2013-12-23 23:05:00,-11.6,-15.1,30.65,NNW,329,0.0,0.0,84,0.00,,,0.00,Wunderground v.1.15,2013-12-24 05:05:00,
2013-12-23 23:10:00,-11.5,-15.0,30.65,NNW,329,0.0,0.0,84,0.00,,,0.00,Wunderground v.1.15,2013-12-24 05:10:00,
2013-12-23 23:15:00,-11.6,-15.1,30.65,NNW,329,0.0,0.0,84,0.00,,,0.00,Wunderground v.1.15,2013-12-24 05:15:00,
2013-12-23 23:20:00,-11.7,-15.2,30.66,NNW,329,0.0,0.0,84,0.00,,,0.00,Wunderground v.1.15,2013-12-24 05:20:00,
2013-12-23 23:25:00,-11.7,-15.2,30.66,NNW,329,0.0,0.0,84,0.00,,,0.00,Wunderground v.1.15,2013-12-24 05:25:00,
2013-12-23 23:35:00,-12.1,-15.6,30.65,NNW,329,0.0,0.0,84,0.00,,,0.00,Wunderground v.1.15,2013-12-24 05:35:00,
2013-12-23 23:40:00,-12.2,-15.9,30.65,NNW,329,0.0,0.0,83,0.00,,,0.00,Wunderground v.1.15,2013-12-24 05:40:00,
2013-12-23 23:45:00,-12.5,-16.0,30.66,NNW,329,0.0,0.0,84,0.00,,,0.00,Wunderground v.1.15,2013-12-24 05:45:00,
2013-12-23 23:50:00,-12.6,-16.1,30.66,NNW,329,0.0,0.0,84,0.00,,,0.00,Wunderground v.1.15,2013-12-24 05:50:00,
2013-12-23 23:55:00,-12.7,-16.2,30.66,NNW,329,0.0,0.0,84,0.00,,,0.00,Wunderground v.1.15,2013-12-24 05:55:00,